sensor_id;sensor_type;location;lat;lon;timestamp;temperature;humidity
79494;SHT31;68951;53.130;18.104;2023-04-06T00:00:34;1.51;55.72
79494;SHT31;68951;53.130;18.104;2023-04-06T00:03:14;1.52;55.82
79494;SHT31;68951;53.130;18.104;2023-04-06T00:05:41;1.51;55.93
79494;SHT31;68951;53.130;18.104;2023-04-06T00:08:08;1.51;56.02
79494;SHT31;68951;53.130;18.104;2023-04-06T00:10:35;1.50;56.15
79494;SHT31;68951;53.130;18.104;2023-04-06T00:13:02;1.51;56.20
79494;SHT31;68951;53.130;18.104;2023-04-06T00:15:29;1.52;56.30
79494;SHT31;68951;53.130;18.104;2023-04-06T00:17:56;1.52;56.36
79494;SHT31;68951;53.130;18.104;2023-04-06T00:20:23;1.52;56.40
79494;SHT31;68951;53.130;18.104;2023-04-06T00:22:50;1.50;56.47
79494;SHT31;68951;53.130;18.104;2023-04-06T00:25:17;1.47;56.50
79494;SHT31;68951;53.130;18.104;2023-04-06T00:27:44;1.44;56.52
79494;SHT31;68951;53.130;18.104;2023-04-06T00:30:11;1.39;56.54
79494;SHT31;68951;53.130;18.104;2023-04-06T00:32:38;1.35;56.62
79494;SHT31;68951;53.130;18.104;2023-04-06T00:35:05;1.33;56.70
79494;SHT31;68951;53.130;18.104;2023-04-06T00:37:32;1.32;56.70
79494;SHT31;68951;53.130;18.104;2023-04-06T00:39:59;1.32;56.80
79494;SHT31;68951;53.130;18.104;2023-04-06T00:42:26;1.32;56.87
79494;SHT31;68951;53.130;18.104;2023-04-06T00:44:57;1.30;56.94
79494;SHT31;68951;53.130;18.104;2023-04-06T00:47:26;1.29;57.01
79494;SHT31;68951;53.130;18.104;2023-04-06T00:49:54;1.28;57.09
79494;SHT31;68951;53.130;18.104;2023-04-06T00:52:21;1.26;57.10
79494;SHT31;68951;53.130;18.104;2023-04-06T00:54:49;1.24;57.20
79494;SHT31;68951;53.130;18.104;2023-04-06T00:57:17;1.23;57.26
79494;SHT31;68951;53.130;18.104;2023-04-06T00:59:44;1.21;57.30
79494;SHT31;68951;53.130;18.104;2023-04-06T01:02:11;1.20;57.36
79494;SHT31;68951;53.130;18.104;2023-04-06T01:04:38;1.19;57.40
79494;SHT31;68951;53.130;18.104;2023-04-06T01:07:06;1.17;57.42
79494;SHT31;68951;53.130;18.104;2023-04-06T01:09:33;1.16;57.49
79494;SHT31;68951;53.130;18.104;2023-04-06T01:12:00;1.14;57.51
79494;SHT31;68951;53.130;18.104;2023-04-06T01:14:27;1.10;57.57
79494;SHT31;68951;53.130;18.104;2023-04-06T01:16:54;1.07;57.61
79494;SHT31;68951;53.130;18.104;2023-04-06T01:19:23;1.05;57.70
79494;SHT31;68951;53.130;18.104;2023-04-06T01:21:50;1.04;57.72
79494;SHT31;68951;53.130;18.104;2023-04-06T01:24:19;1.05;57.80
79494;SHT31;68951;53.130;18.104;2023-04-06T01:26:47;1.04;57.81
79494;SHT31;68951;53.130;18.104;2023-04-06T01:29:13;1.01;57.88
79494;SHT31;68951;53.130;18.104;2023-04-06T01:31:41;1.00;57.92
79494;SHT31;68951;53.130;18.104;2023-04-06T01:34:07;0.99;57.97
79494;SHT31;68951;53.130;18.104;2023-04-06T01:36:34;0.97;58.03
79494;SHT31;68951;53.130;18.104;2023-04-06T01:39:01;0.96;58.10
79494;SHT31;68951;53.130;18.104;2023-04-06T01:41:28;0.95;58.16
79494;SHT31;68951;53.130;18.104;2023-04-06T01:43:55;0.93;58.20
79494;SHT31;68951;53.130;18.104;2023-04-06T01:46:22;0.92;58.24
79494;SHT31;68951;53.130;18.104;2023-04-06T01:48:49;0.94;58.31
79494;SHT31;68951;53.130;18.104;2023-04-06T01:51:16;0.94;58.38
79494;SHT31;68951;53.130;18.104;2023-04-06T01:53:43;0.97;58.42
79494;SHT31;68951;53.130;18.104;2023-04-06T01:56:10;1.01;58.50
79494;SHT31;68951;53.130;18.104;2023-04-06T01:58:37;1.02;58.50
79494;SHT31;68951;53.130;18.104;2023-04-06T02:01:04;1.06;58.57
79494;SHT31;68951;53.130;18.104;2023-04-06T02:03:30;1.05;58.59
79494;SHT31;68951;53.130;18.104;2023-04-06T02:05:57;1.04;58.60
79494;SHT31;68951;53.130;18.104;2023-04-06T02:08:24;1.03;58.70
79494;SHT31;68951;53.130;18.104;2023-04-06T02:10:51;1.01;58.71
79494;SHT31;68951;53.130;18.104;2023-04-06T02:13:18;1.03;58.70
79494;SHT31;68951;53.130;18.104;2023-04-06T02:15:45;1.01;58.78
79494;SHT31;68951;53.130;18.104;2023-04-06T02:18:12;1.02;58.79
79494;SHT31;68951;53.130;18.104;2023-04-06T02:20:39;1.00;58.80
79494;SHT31;68951;53.130;18.104;2023-04-06T02:23:05;0.97;58.80
79494;SHT31;68951;53.130;18.104;2023-04-06T02:25:33;0.96;58.86
79494;SHT31;68951;53.130;18.104;2023-04-06T02:28:00;0.93;58.90
79494;SHT31;68951;53.130;18.104;2023-04-06T02:30:27;0.91;58.93
79494;SHT31;68951;53.130;18.104;2023-04-06T02:32:55;0.89;58.99
79494;SHT31;68951;53.130;18.104;2023-04-06T02:35:22;0.89;59.00
79494;SHT31;68951;53.130;18.104;2023-04-06T02:37:49;0.91;59.09
79494;SHT31;68951;53.130;18.104;2023-04-06T02:40:15;0.92;59.11
79494;SHT31;68951;53.130;18.104;2023-04-06T02:42:42;0.93;59.18
79494;SHT31;68951;53.130;18.104;2023-04-06T02:45:09;0.95;59.22
79494;SHT31;68951;53.130;18.104;2023-04-06T02:47:36;0.98;59.25
79494;SHT31;68951;53.130;18.104;2023-04-06T02:50:03;0.99;59.30
79494;SHT31;68951;53.130;18.104;2023-04-06T02:52:31;0.99;59.34
79494;SHT31;68951;53.130;18.104;2023-04-06T02:54:58;1.01;59.41
79494;SHT31;68951;53.130;18.104;2023-04-06T02:57:25;1.03;59.49
79494;SHT31;68951;53.130;18.104;2023-04-06T02:59:52;1.03;59.58
79494;SHT31;68951;53.130;18.104;2023-04-06T03:02:19;1.04;59.64
79494;SHT31;68951;53.130;18.104;2023-04-06T03:04:46;1.09;59.70
79494;SHT31;68951;53.130;18.104;2023-04-06T03:07:13;1.15;59.76
79494;SHT31;68951;53.130;18.104;2023-04-06T03:09:40;1.20;59.80
79494;SHT31;68951;53.130;18.104;2023-04-06T03:12:07;1.25;59.80
79494;SHT31;68951;53.130;18.104;2023-04-06T03:14:34;1.25;59.80
79494;SHT31;68951;53.130;18.104;2023-04-06T03:17:01;1.27;59.81
79494;SHT31;68951;53.130;18.104;2023-04-06T03:19:28;1.26;59.80
79494;SHT31;68951;53.130;18.104;2023-04-06T03:21:55;1.28;59.88
79494;SHT31;68951;53.130;18.104;2023-04-06T03:24:22;1.28;59.90
79494;SHT31;68951;53.130;18.104;2023-04-06T03:26:49;1.27;59.90
79494;SHT31;68951;53.130;18.104;2023-04-06T03:29:15;1.27;59.92
79494;SHT31;68951;53.130;18.104;2023-04-06T03:31:42;1.28;59.97
79494;SHT31;68951;53.130;18.104;2023-04-06T03:34:09;1.28;60.00
79494;SHT31;68951;53.130;18.104;2023-04-06T03:36:36;1.28;60.05
79494;SHT31;68951;53.130;18.104;2023-04-06T03:39:03;1.29;60.10
79494;SHT31;68951;53.130;18.104;2023-04-06T03:41:30;1.30;60.10
79494;SHT31;68951;53.130;18.104;2023-04-06T03:43:57;1.30;60.11
79494;SHT31;68951;53.130;18.104;2023-04-06T03:46:24;1.30;60.16
79494;SHT31;68951;53.130;18.104;2023-04-06T03:48:51;1.33;60.20
79494;SHT31;68951;53.130;18.104;2023-04-06T03:51:18;1.35;60.20
79494;SHT31;68951;53.130;18.104;2023-04-06T03:53:45;1.35;60.22
79494;SHT31;68951;53.130;18.104;2023-04-06T03:56:11;1.32;60.24
79494;SHT31;68951;53.130;18.104;2023-04-06T03:58:39;1.29;60.29
79494;SHT31;68951;53.130;18.104;2023-04-06T04:01:06;1.25;60.30
79494;SHT31;68951;53.130;18.104;2023-04-06T04:03:33;1.22;60.30
79494;SHT31;68951;53.130;18.104;2023-04-06T04:06:00;1.21;60.38
79494;SHT31;68951;53.130;18.104;2023-04-06T04:08:26;1.19;60.41
79494;SHT31;68951;53.130;18.104;2023-04-06T04:10:53;1.15;60.48
79494;SHT31;68951;53.130;18.104;2023-04-06T04:13:20;1.14;60.54
79494;SHT31;68951;53.130;18.104;2023-04-06T04:15:47;1.17;60.61
79494;SHT31;68951;53.130;18.104;2023-04-06T04:18:14;1.21;60.69
79494;SHT31;68951;53.130;18.104;2023-04-06T04:20:41;1.26;60.70
79494;SHT31;68951;53.130;18.104;2023-04-06T04:23:07;1.25;60.70
79494;SHT31;68951;53.130;18.104;2023-04-06T04:25:34;1.24;60.78
79494;SHT31;68951;53.130;18.104;2023-04-06T04:28:01;1.25;60.84
79494;SHT31;68951;53.130;18.104;2023-04-06T04:30:29;1.28;60.89
79494;SHT31;68951;53.130;18.104;2023-04-06T04:32:56;1.31;60.93
79494;SHT31;68951;53.130;18.104;2023-04-06T04:35:22;1.35;61.00
79494;SHT31;68951;53.130;18.104;2023-04-06T04:37:49;1.41;61.03
79494;SHT31;68951;53.130;18.104;2023-04-06T04:40:16;1.45;61.10
79494;SHT31;68951;53.130;18.104;2023-04-06T04:42:43;1.49;61.10
79494;SHT31;68951;53.130;18.104;2023-04-06T04:45:11;1.53;61.20
79494;SHT31;68951;53.130;18.104;2023-04-06T04:47:38;1.59;61.20
79494;SHT31;68951;53.130;18.104;2023-04-06T04:50:05;1.62;61.25
79494;SHT31;68951;53.130;18.104;2023-04-06T04:52:32;1.63;61.21
79494;SHT31;68951;53.130;18.104;2023-04-06T04:54:59;1.64;61.26
79494;SHT31;68951;53.130;18.104;2023-04-06T04:57:26;1.70;61.28
79494;SHT31;68951;53.130;18.104;2023-04-06T04:59:53;1.76;61.30
79494;SHT31;68951;53.130;18.104;2023-04-06T05:02:19;1.85;61.30
79494;SHT31;68951;53.130;18.104;2023-04-06T05:04:46;1.91;61.30
79494;SHT31;68951;53.130;18.104;2023-04-06T05:07:13;1.93;61.30
79494;SHT31;68951;53.130;18.104;2023-04-06T05:09:41;1.96;61.29
79494;SHT31;68951;53.130;18.104;2023-04-06T05:12:08;1.98;61.26
79494;SHT31;68951;53.130;18.104;2023-04-06T05:14:36;2.01;61.28
79494;SHT31;68951;53.130;18.104;2023-04-06T05:17:03;2.06;61.30
79494;SHT31;68951;53.130;18.104;2023-04-06T05:19:30;2.08;61.30
79494;SHT31;68951;53.130;18.104;2023-04-06T05:21:56;2.15;61.31
79494;SHT31;68951;53.130;18.104;2023-04-06T05:24:23;2.29;61.38
79494;SHT31;68951;53.130;18.104;2023-04-06T05:26:51;2.38;61.33
79494;SHT31;68951;53.130;18.104;2023-04-06T05:29:18;2.40;61.28
79494;SHT31;68951;53.130;18.104;2023-04-06T05:31:46;2.41;61.21
79494;SHT31;68951;53.130;18.104;2023-04-06T05:34:13;2.46;61.19
79494;SHT31;68951;53.130;18.104;2023-04-06T05:36:40;2.53;61.14
79494;SHT31;68951;53.130;18.104;2023-04-06T05:39:07;2.61;61.10
79494;SHT31;68951;53.130;18.104;2023-04-06T05:41:34;2.67;61.10
79494;SHT31;68951;53.130;18.104;2023-04-06T05:44:01;2.72;61.00
79494;SHT31;68951;53.130;18.104;2023-04-06T05:46:28;2.69;61.00
79494;SHT31;68951;53.130;18.104;2023-04-06T05:48:55;2.68;60.92
79494;SHT31;68951;53.130;18.104;2023-04-06T05:51:22;2.77;60.90
79494;SHT31;68951;53.130;18.104;2023-04-06T05:53:49;2.88;60.90
79494;SHT31;68951;53.130;18.104;2023-04-06T05:56:16;3.04;60.90
79494;SHT31;68951;53.130;18.104;2023-04-06T05:58:43;3.09;60.83
79494;SHT31;68951;53.130;18.104;2023-04-06T06:01:09;3.19;60.80
79494;SHT31;68951;53.130;18.104;2023-04-06T06:03:37;3.33;60.73
79494;SHT31;68951;53.130;18.104;2023-04-06T06:06:04;3.39;60.70
79494;SHT31;68951;53.130;18.104;2023-04-06T06:08:31;3.44;60.62
79494;SHT31;68951;53.130;18.104;2023-04-06T06:10:58;3.47;60.54
79494;SHT31;68951;53.130;18.104;2023-04-06T06:13:25;3.52;60.50
79494;SHT31;68951;53.130;18.104;2023-04-06T06:15:52;3.58;60.50
79494;SHT31;68951;53.130;18.104;2023-04-06T06:18:19;3.66;60.47
79494;SHT31;68951;53.130;18.104;2023-04-06T06:20:45;3.75;60.40
79494;SHT31;68951;53.130;18.104;2023-04-06T06:23:13;3.84;60.40
79494;SHT31;68951;53.130;18.104;2023-04-06T06:25:40;3.92;60.31
79494;SHT31;68951;53.130;18.104;2023-04-06T06:28:07;4.02;60.24
79494;SHT31;68951;53.130;18.104;2023-04-06T06:30:34;4.11;60.18
79494;SHT31;68951;53.130;18.104;2023-04-06T06:33:01;4.20;60.10
79494;SHT31;68951;53.130;18.104;2023-04-06T06:35:28;4.29;60.06
79494;SHT31;68951;53.130;18.104;2023-04-06T06:37:55;4.40;60.00
79494;SHT31;68951;53.130;18.104;2023-04-06T06:40:22;4.52;59.87
79494;SHT31;68951;53.130;18.104;2023-04-06T06:42:50;4.62;59.80
79494;SHT31;68951;53.130;18.104;2023-04-06T06:45:17;4.71;59.69
79494;SHT31;68951;53.130;18.104;2023-04-06T06:47:44;4.80;59.55
79494;SHT31;68951;53.130;18.104;2023-04-06T06:50:12;4.90;59.44
79494;SHT31;68951;53.130;18.104;2023-04-06T06:52:39;5.01;59.30
79494;SHT31;68951;53.130;18.104;2023-04-06T06:55:06;5.12;59.13
79494;SHT31;68951;53.130;18.104;2023-04-06T06:57:35;5.26;59.01
79494;SHT31;68951;53.130;18.104;2023-04-06T07:00:02;5.37;58.73
79494;SHT31;68951;53.130;18.104;2023-04-06T07:02:33;5.50;58.41
79494;SHT31;68951;53.130;18.104;2023-04-06T07:05:03;5.68;58.14
79494;SHT31;68951;53.130;18.104;2023-04-06T07:07:33;5.83;57.75
79494;SHT31;68951;53.130;18.104;2023-04-06T07:10:01;5.95;57.28
79494;SHT31;68951;53.130;18.104;2023-04-06T07:12:28;6.07;56.91
79494;SHT31;68951;53.130;18.104;2023-04-06T07:14:55;6.22;56.63
79494;SHT31;68951;53.130;18.104;2023-04-06T07:17:21;6.37;56.33
79494;SHT31;68951;53.130;18.104;2023-04-06T07:19:48;6.50;56.02
79494;SHT31;68951;53.130;18.104;2023-04-06T07:22:15;6.62;55.71
79494;SHT31;68951;53.130;18.104;2023-04-06T07:24:42;6.72;55.42
79494;SHT31;68951;53.130;18.104;2023-04-06T07:27:09;6.82;55.08
79494;SHT31;68951;53.130;18.104;2023-04-06T07:29:36;6.88;54.75
79494;SHT31;68951;53.130;18.104;2023-04-06T07:32:03;6.80;54.31
79494;SHT31;68951;53.130;18.104;2023-04-06T07:34:30;6.78;53.96
79494;SHT31;68951;53.130;18.104;2023-04-06T07:36:57;6.84;53.74
79494;SHT31;68951;53.130;18.104;2023-04-06T07:39:24;6.98;53.52
79494;SHT31;68951;53.130;18.104;2023-04-06T07:41:52;7.14;53.29
79494;SHT31;68951;53.130;18.104;2023-04-06T07:44:19;7.28;53.05
79494;SHT31;68951;53.130;18.104;2023-04-06T07:46:46;7.41;52.70
79494;SHT31;68951;53.130;18.104;2023-04-06T07:49:13;7.52;52.19
79494;SHT31;68951;53.130;18.104;2023-04-06T07:51:40;7.54;51.74
79494;SHT31;68951;53.130;18.104;2023-04-06T07:54:07;7.51;51.30
79494;SHT31;68951;53.130;18.104;2023-04-06T07:56:34;7.53;50.86
79494;SHT31;68951;53.130;18.104;2023-04-06T07:59:01;7.60;50.55
79494;SHT31;68951;53.130;18.104;2023-04-06T08:01:28;7.79;50.41
79494;SHT31;68951;53.130;18.104;2023-04-06T08:03:56;7.93;50.17
79494;SHT31;68951;53.130;18.104;2023-04-06T08:06:24;7.95;49.86
79494;SHT31;68951;53.130;18.104;2023-04-06T08:08:51;8.03;49.52
79494;SHT31;68951;53.130;18.104;2023-04-06T08:11:18;8.06;48.98
79494;SHT31;68951;53.130;18.104;2023-04-06T08:13:45;8.09;48.58
79494;SHT31;68951;53.130;18.104;2023-04-06T08:16:12;8.13;48.28
79494;SHT31;68951;53.130;18.104;2023-04-06T08:18:39;8.24;48.04
79494;SHT31;68951;53.130;18.104;2023-04-06T08:21:05;8.27;47.72
79494;SHT31;68951;53.130;18.104;2023-04-06T08:23:32;8.25;47.35
79494;SHT31;68951;53.130;18.104;2023-04-06T08:25:59;8.19;46.98
79494;SHT31;68951;53.130;18.104;2023-04-06T08:28:26;8.13;46.68
79494;SHT31;68951;53.130;18.104;2023-04-06T08:30:53;8.14;46.46
79494;SHT31;68951;53.130;18.104;2023-04-06T08:33:20;8.12;46.15
79494;SHT31;68951;53.130;18.104;2023-04-06T08:35:47;8.15;46.00
79494;SHT31;68951;53.130;18.104;2023-04-06T08:38:14;8.16;45.83
79494;SHT31;68951;53.130;18.104;2023-04-06T08:40:41;8.22;45.68
79494;SHT31;68951;53.130;18.104;2023-04-06T08:43:12;8.23;45.53
79494;SHT31;68951;53.130;18.104;2023-04-06T08:45:41;8.27;45.40
79494;SHT31;68951;53.130;18.104;2023-04-06T08:48:09;8.35;45.30
79494;SHT31;68951;53.130;18.104;2023-04-06T08:50:38;8.40;45.12
79494;SHT31;68951;53.130;18.104;2023-04-06T08:53:06;8.44;44.93
79494;SHT31;68951;53.130;18.104;2023-04-06T08:55:34;8.53;44.80
79494;SHT31;68951;53.130;18.104;2023-04-06T08:58:02;8.71;44.71
79494;SHT31;68951;53.130;18.104;2023-04-06T09:00:32;8.82;44.55
79494;SHT31;68951;53.130;18.104;2023-04-06T09:03:03;9.02;44.43
79494;SHT31;68951;53.130;18.104;2023-04-06T09:05:32;9.37;44.27
79494;SHT31;68951;53.130;18.104;2023-04-06T09:07:59;9.49;44.01
79494;SHT31;68951;53.130;18.104;2023-04-06T09:10:26;9.49;43.71
79494;SHT31;68951;53.130;18.104;2023-04-06T09:13:07;9.51;43.53
79494;SHT31;68951;53.130;18.104;2023-04-06T09:15:35;9.54;43.41
79494;SHT31;68951;53.130;18.104;2023-04-06T09:18:01;9.57;43.25
79494;SHT31;68951;53.130;18.104;2023-04-06T09:20:28;9.57;43.06
79494;SHT31;68951;53.130;18.104;2023-04-06T09:22:55;9.60;42.90
79494;SHT31;68951;53.130;18.104;2023-04-06T09:25:23;9.56;42.73
79494;SHT31;68951;53.130;18.104;2023-04-06T09:27:59;9.55;42.63
79494;SHT31;68951;53.130;18.104;2023-04-06T09:30:29;9.45;42.46
79494;SHT31;68951;53.130;18.104;2023-04-06T09:32:57;9.30;42.41
79494;SHT31;68951;53.130;18.104;2023-04-06T09:35:25;9.28;42.39
79494;SHT31;68951;53.130;18.104;2023-04-06T09:37:53;9.33;42.35
79494;SHT31;68951;53.130;18.104;2023-04-06T09:40:20;9.37;42.24
79494;SHT31;68951;53.130;18.104;2023-04-06T09:42:49;9.43;42.16
79494;SHT31;68951;53.130;18.104;2023-04-06T09:45:18;9.50;42.02
79494;SHT31;68951;53.130;18.104;2023-04-06T09:47:47;9.51;41.91
79494;SHT31;68951;53.130;18.104;2023-04-06T09:50:14;9.46;41.75
79494;SHT31;68951;53.130;18.104;2023-04-06T09:52:45;9.37;41.65
79494;SHT31;68951;53.130;18.104;2023-04-06T09:55:20;9.40;41.58
79494;SHT31;68951;53.130;18.104;2023-04-06T09:58:09;9.42;41.51
79494;SHT31;68951;53.130;18.104;2023-04-06T10:00:57;9.40;41.50
79494;SHT31;68951;53.130;18.104;2023-04-06T10:03:41;9.40;41.45
79494;SHT31;68951;53.130;18.104;2023-04-06T10:06:38;9.55;41.40
79494;SHT31;68951;53.130;18.104;2023-04-06T10:09:06;9.67;41.33
79494;SHT31;68951;53.130;18.104;2023-04-06T10:11:34;9.66;41.26
79494;SHT31;68951;53.130;18.104;2023-04-06T10:14:01;9.94;41.24
79494;SHT31;68951;53.130;18.104;2023-04-06T10:16:28;10.37;41.12
79494;SHT31;68951;53.130;18.104;2023-04-06T10:18:58;10.68;40.90
79494;SHT31;68951;53.130;18.104;2023-04-06T10:21:36;11.05;40.69
79494;SHT31;68951;53.130;18.104;2023-04-06T10:24:09;11.41;40.45
79494;SHT31;68951;53.130;18.104;2023-04-06T10:26:37;11.57;40.20
79494;SHT31;68951;53.130;18.104;2023-04-06T10:29:04;11.81;40.01
79494;SHT31;68951;53.130;18.104;2023-04-06T10:31:31;12.27;39.81
79494;SHT31;68951;53.130;18.104;2023-04-06T10:34:02;12.57;39.41
79494;SHT31;68951;53.130;18.104;2023-04-06T10:36:33;12.68;39.16
79494;SHT31;68951;53.130;18.104;2023-04-06T10:39:02;12.49;38.80
79494;SHT31;68951;53.130;18.104;2023-04-06T10:41:43;12.48;38.65
79494;SHT31;68951;53.130;18.104;2023-04-06T10:44:17;12.38;38.50
79494;SHT31;68951;53.130;18.104;2023-04-06T10:46:57;12.31;38.41
79494;SHT31;68951;53.130;18.104;2023-04-06T10:49:29;12.65;38.37
79494;SHT31;68951;53.130;18.104;2023-04-06T10:51:56;12.96;38.28
79494;SHT31;68951;53.130;18.104;2023-04-06T10:54:24;12.98;38.09
79494;SHT31;68951;53.130;18.104;2023-04-06T10:56:53;13.00;37.93
79494;SHT31;68951;53.130;18.104;2023-04-06T10:59:20;12.98;37.76
79494;SHT31;68951;53.130;18.104;2023-04-06T11:01:48;13.22;37.62
79494;SHT31;68951;53.130;18.104;2023-04-06T11:04:16;13.59;37.53
79494;SHT31;68951;53.130;18.104;2023-04-06T11:06:48;13.94;37.28
79494;SHT31;68951;53.130;18.104;2023-04-06T11:09:23;14.03;36.99
79494;SHT31;68951;53.130;18.104;2023-04-06T11:11:54;13.76;36.62
79494;SHT31;68951;53.130;18.104;2023-04-06T11:14:22;13.44;36.52
79494;SHT31;68951;53.130;18.104;2023-04-06T11:16:49;13.38;36.49
79494;SHT31;68951;53.130;18.104;2023-04-06T11:19:17;13.53;36.58
79494;SHT31;68951;53.130;18.104;2023-04-06T11:21:45;13.68;36.51
79494;SHT31;68951;53.130;18.104;2023-04-06T11:29:26;14.31;36.11
79494;SHT31;68951;53.130;18.104;2023-04-06T11:31:59;14.99;35.99
79494;SHT31;68951;53.130;18.104;2023-04-06T11:34:29;15.46;35.78
79494;SHT31;68951;53.130;18.104;2023-04-06T11:37:01;15.51;35.36
79494;SHT31;68951;53.130;18.104;2023-04-06T11:39:37;15.38;35.03
79494;SHT31;68951;53.130;18.104;2023-04-06T11:42:20;15.58;34.99
79494;SHT31;68951;53.130;18.104;2023-04-06T11:44:49;15.73;34.79
79494;SHT31;68951;53.130;18.104;2023-04-06T11:47:20;16.01;34.71
79494;SHT31;68951;53.130;18.104;2023-04-06T11:50:08;16.48;34.51
79494;SHT31;68951;53.130;18.104;2023-04-06T11:52:38;16.92;34.30
79494;SHT31;68951;53.130;18.104;2023-04-06T11:55:14;17.09;33.98
79494;SHT31;68951;53.130;18.104;2023-04-06T11:57:43;17.09;33.73
79494;SHT31;68951;53.130;18.104;2023-04-06T12:00:11;17.12;33.48
79494;SHT31;68951;53.130;18.104;2023-04-06T12:02:39;17.26;33.24
79494;SHT31;68951;53.130;18.104;2023-04-06T12:05:06;17.37;33.01
79494;SHT31;68951;53.130;18.104;2023-04-06T12:07:34;17.59;32.78
79494;SHT31;68951;53.130;18.104;2023-04-06T12:10:02;17.71;32.56
79494;SHT31;68951;53.130;18.104;2023-04-06T12:12:30;17.57;32.26
79494;SHT31;68951;53.130;18.104;2023-04-06T12:14:57;17.62;32.15
79494;SHT31;68951;53.130;18.104;2023-04-06T12:17:24;17.95;32.07
79494;SHT31;68951;53.130;18.104;2023-04-06T12:19:51;18.17;31.85
79494;SHT31;68951;53.130;18.104;2023-04-06T12:22:18;18.10;31.70
79494;SHT31;68951;53.130;18.104;2023-04-06T12:24:45;18.43;31.60
79494;SHT31;68951;53.130;18.104;2023-04-06T12:27:12;18.41;31.30
79494;SHT31;68951;53.130;18.104;2023-04-06T12:29:39;17.99;30.97
79494;SHT31;68951;53.130;18.104;2023-04-06T12:32:06;17.84;30.90
79494;SHT31;68951;53.130;18.104;2023-04-06T12:34:33;17.65;30.90
79494;SHT31;68951;53.130;18.104;2023-04-06T12:37:00;17.78;30.92
79494;SHT31;68951;53.130;18.104;2023-04-06T12:39:27;17.85;30.81
79494;SHT31;68951;53.130;18.104;2023-04-06T12:41:54;18.05;30.82
79494;SHT31;68951;53.130;18.104;2023-04-06T12:44:22;18.14;30.75
79494;SHT31;68951;53.130;18.104;2023-04-06T12:46:49;18.30;30.69
79494;SHT31;68951;53.130;18.104;2023-04-06T12:49:16;18.42;30.57
79494;SHT31;68951;53.130;18.104;2023-04-06T12:51:45;18.31;30.45
79494;SHT31;68951;53.130;18.104;2023-04-06T12:54:12;17.97;30.37
79494;SHT31;68951;53.130;18.104;2023-04-06T12:56:39;17.36;30.33
79494;SHT31;68951;53.130;18.104;2023-04-06T12:59:06;16.96;30.38
79494;SHT31;68951;53.130;18.104;2023-04-06T13:01:33;16.89;30.55
79494;SHT31;68951;53.130;18.104;2023-04-06T13:04:00;16.86;30.68
79494;SHT31;68951;53.130;18.104;2023-04-06T13:06:27;16.78;30.83
79494;SHT31;68951;53.130;18.104;2023-04-06T13:08:55;16.66;30.90
79494;SHT31;68951;53.130;18.104;2023-04-06T13:11:22;16.57;31.01
79494;SHT31;68951;53.130;18.104;2023-04-06T13:13:52;16.83;31.00
79494;SHT31;68951;53.130;18.104;2023-04-06T13:16:19;17.00;30.96
79494;SHT31;68951;53.130;18.104;2023-04-06T13:18:46;16.74;30.78
79494;SHT31;68951;53.130;18.104;2023-04-06T13:21:16;16.33;30.81
79494;SHT31;68951;53.130;18.104;2023-04-06T13:23:43;15.99;30.99
79494;SHT31;68951;53.130;18.104;2023-04-06T13:26:10;15.74;31.17
79494;SHT31;68951;53.130;18.104;2023-04-06T13:28:39;15.64;31.40
79494;SHT31;68951;53.130;18.104;2023-04-06T13:31:06;15.52;31.53
79494;SHT31;68951;53.130;18.104;2023-04-06T13:33:34;15.46;31.66
79494;SHT31;68951;53.130;18.104;2023-04-06T13:36:01;15.50;31.79
79494;SHT31;68951;53.130;18.104;2023-04-06T13:38:29;15.67;31.88
79494;SHT31;68951;53.130;18.104;2023-04-06T13:40:56;16.00;31.87
79494;SHT31;68951;53.130;18.104;2023-04-06T13:43:23;16.21;31.84
79494;SHT31;68951;53.130;18.104;2023-04-06T13:45:53;16.19;31.75
79494;SHT31;68951;53.130;18.104;2023-04-06T13:48:21;16.02;31.72
79494;SHT31;68951;53.130;18.104;2023-04-06T13:50:48;15.92;31.79
79494;SHT31;68951;53.130;18.104;2023-04-06T13:53:15;16.00;31.90
79494;SHT31;68951;53.130;18.104;2023-04-06T13:55:43;16.02;31.98
79494;SHT31;68951;53.130;18.104;2023-04-06T13:58:10;15.95;32.04
79494;SHT31;68951;53.130;18.104;2023-04-06T14:00:37;15.85;32.11
79494;SHT31;68951;53.130;18.104;2023-04-06T14:03:05;15.97;32.13
79494;SHT31;68951;53.130;18.104;2023-04-06T14:05:32;16.09;32.12
79494;SHT31;68951;53.130;18.104;2023-04-06T14:08:00;16.09;32.19
79494;SHT31;68951;53.130;18.104;2023-04-06T14:10:27;16.26;32.25
79494;SHT31;68951;53.130;18.104;2023-04-06T14:12:54;16.26;32.19
79494;SHT31;68951;53.130;18.104;2023-04-06T14:15:21;16.34;32.22
79494;SHT31;68951;53.130;18.104;2023-04-06T14:17:49;16.52;32.23
79494;SHT31;68951;53.130;18.104;2023-04-06T14:20:16;16.65;32.21
79494;SHT31;68951;53.130;18.104;2023-04-06T14:22:43;16.65;32.14
79494;SHT31;68951;53.130;18.104;2023-04-06T14:25:10;16.48;32.11
79494;SHT31;68951;53.130;18.104;2023-04-06T14:27:37;16.43;32.22
79494;SHT31;68951;53.130;18.104;2023-04-06T14:30:05;16.42;32.33
79494;SHT31;68951;53.130;18.104;2023-04-06T14:32:32;16.40;32.37
79494;SHT31;68951;53.130;18.104;2023-04-06T14:34:59;16.17;32.46
79494;SHT31;68951;53.130;18.104;2023-04-06T14:37:26;15.88;32.54
79494;SHT31;68951;53.130;18.104;2023-04-06T14:39:53;15.63;32.62
79494;SHT31;68951;53.130;18.104;2023-04-06T14:42:20;15.36;32.68
79494;SHT31;68951;53.130;18.104;2023-04-06T14:44:47;14.98;32.80
79494;SHT31;68951;53.130;18.104;2023-04-06T14:47:15;14.67;32.98
79494;SHT31;68951;53.130;18.104;2023-04-06T14:49:47;14.20;33.14
79494;SHT31;68951;53.130;18.104;2023-04-06T14:52:17;13.73;33.35
79494;SHT31;68951;53.130;18.104;2023-04-06T14:54:44;13.33;33.63
79494;SHT31;68951;53.130;18.104;2023-04-06T14:57:11;13.01;33.90
79494;SHT31;68951;53.130;18.104;2023-04-06T14:59:38;12.71;34.20
79494;SHT31;68951;53.130;18.104;2023-04-06T15:02:05;12.52;34.47
79494;SHT31;68951;53.130;18.104;2023-04-06T15:04:35;12.35;34.71
79494;SHT31;68951;53.130;18.104;2023-04-06T15:07:02;12.26;34.95
79494;SHT31;68951;53.130;18.104;2023-04-06T15:09:29;12.03;35.23
79494;SHT31;68951;53.130;18.104;2023-04-06T15:11:56;11.93;35.47
79494;SHT31;68951;53.130;18.104;2023-04-06T15:14:23;11.87;35.69
79494;SHT31;68951;53.130;18.104;2023-04-06T15:16:50;11.75;35.93
79494;SHT31;68951;53.130;18.104;2023-04-06T15:19:17;11.67;36.11
79494;SHT31;68951;53.130;18.104;2023-04-06T15:21:44;11.59;36.26
79494;SHT31;68951;53.130;18.104;2023-04-06T15:24:11;11.50;36.46
79494;SHT31;68951;53.130;18.104;2023-04-06T15:26:38;11.47;36.68
79494;SHT31;68951;53.130;18.104;2023-04-06T15:29:05;11.38;36.91
79494;SHT31;68951;53.130;18.104;2023-04-06T15:31:32;11.20;37.03
79494;SHT31;68951;53.130;18.104;2023-04-06T15:34:00;11.03;37.19